Time;durP1;ratioP1;P1;durP2;ratioP2;P2;SDS_P1;SDS_P2;PMS_P1;PMS_P2;Temp;Humidity;BMP_temperature;BMP_pressure;BME280_temperature;BME280_humidity;BME280_pressure;Samples;Min_cycle;Max_cycle;Signal;HPM_P1;HPM_P2
2020/12/17 00:02:03;;;;;;;2.88;1.80;;;;;;;7.02;85.16;97384.84;4915971;29;20035;-78
2020/12/17 00:04:29;;;;;;;1.90;1.65;;;;;;;7.02;85.32;97390.03;4948643;29;20039;-79
2020/12/17 00:06:55;;;;;;;2.20;1.80;;;;;;;7.12;84.08;97382.53;4949114;29;20035;-78
2020/12/17 00:09:21;;;;;;;2.33;1.48;;;;;;;7.15;84.33;97373.56;4900662;29;20102;-79
2020/12/17 00:11:48;;;;;;;3.35;2.17;;;;;;;7.13;84.30;97387.50;4900528;29;20040;-79
2020/12/17 00:14:14;;;;;;;2.10;1.60;;;;;;;7.11;84.20;97370.59;4934824;29;20054;-79
2020/12/17 00:16:40;;;;;;;4.80;2.08;;;;;;;7.08;84.63;97373.63;4916150;29;20035;-79
2020/12/17 00:19:08;;;;;;;3.03;1.90;;;;;;;7.10;84.53;97372.41;4934432;29;20051;-78
2020/12/17 00:21:36;;;;;;;2.65;1.73;;;;;;;7.08;84.37;97371.06;4901972;29;20032;-79
2020/12/17 00:24:03;;;;;;;2.17;1.80;;;;;;;7.14;84.38;97372.75;4933116;29;20028;-78
2020/12/17 00:26:29;;;;;;;2.92;1.60;;;;;;;7.11;83.41;97375.78;4948391;28;20035;-79
2020/12/17 00:28:55;;;;;;;2.22;1.33;;;;;;;7.12;83.82;97379.94;4917317;29;20036;-79
2020/12/17 00:31:21;;;;;;;2.30;1.63;;;;;;;7.06;83.44;97380.81;4917232;29;20418;-81
2020/12/17 00:33:47;;;;;;;2.17;1.60;;;;;;;7.06;83.81;97381.63;4932839;29;20035;-81
2020/12/17 00:36:23;;;;;;;4.53;1.58;;;;;;;7.05;83.55;97369.66;4933793;29;20386;-81
2020/12/17 00:38:49;;;;;;;3.97;1.60;;;;;;;7.01;83.88;97372.91;4916033;29;20035;-81
2020/12/17 00:41:16;;;;;;;2.05;1.80;;;;;;;7.11;83.49;97378.38;4917846;29;20062;-81
2020/12/17 00:43:43;;;;;;;2.72;2.08;;;;;;;7.01;84.32;97380.66;4923657;29;20127;-81
2020/12/17 00:46:13;;;;;;;1.75;1.48;;;;;;;6.91;85.25;97384.56;4917901;29;20055;-80
2020/12/17 00:48:40;;;;;;;2.40;1.70;;;;;;;6.93;84.63;97372.19;4915374;29;20031;-81
2020/12/17 00:51:06;;;;;;;2.58;1.60;;;;;;;6.92;84.40;97380.97;4916091;29;20470;-81
2020/12/17 00:53:32;;;;;;;2.60;1.75;;;;;;;6.81;85.81;97380.91;4931778;29;20371;-82
2020/12/17 00:55:58;;;;;;;6.65;1.80;;;;;;;6.77;85.27;97374.53;4933804;29;20042;-81
2020/12/17 00:58:24;;;;;;;2.42;1.77;;;;;;;6.61;85.57;97373.31;4931876;29;20039;-81
2020/12/17 01:00:49;;;;;;;2.47;1.70;;;;;;;6.60;85.57;97371.72;4932957;29;20032;-80
2020/12/17 01:03:15;;;;;;;2.00;1.80;;;;;;;6.65;85.47;97375.28;4907395;29;20040;-81
2020/12/17 01:05:41;;;;;;;4.13;1.90;;;;;;;6.74;85.28;97378.38;4932206;29;20024;-81
2020/12/17 01:08:07;;;;;;;2.58;1.85;;;;;;;6.64;85.57;97373.69;4948229;28;20143;-82
2020/12/17 01:10:33;;;;;;;1.83;1.58;;;;;;;6.60;84.52;97380.28;4947685;28;20039;-80
2020/12/17 01:12:59;;;;;;;1.80;1.58;;;;;;;6.66;85.35;97392.34;4918030;29;20086;-78
2020/12/17 01:15:24;;;;;;;3.22;1.60;;;;;;;6.61;85.60;97384.44;4932964;29;20045;-79
2020/12/17 01:17:51;;;;;;;2.92;1.63;;;;;;;6.53;85.46;97377.75;4917107;29;20058;-79
2020/12/17 01:20:17;;;;;;;3.05;1.67;;;;;;;6.62;85.14;97386.03;4916624;29;20070;-79
2020/12/17 01:22:43;;;;;;;2.83;1.55;;;;;;;6.62;85.12;97380.09;4914771;29;20051;-78
2020/12/17 01:25:09;;;;;;;3.55;1.75;;;;;;;6.72;84.88;97385.56;4948495;29;20098;-79
2020/12/17 01:27:35;;;;;;;2.47;1.92;;;;;;;6.78;85.23;97379.50;4953409;28;20083;-81
2020/12/17 01:30:00;;;;;;;2.28;1.48;;;;;;;6.85;84.16;97390.59;4946105;28;20036;-81
2020/12/17 01:32:26;;;;;;;2.17;1.63;;;;;;;6.84;84.42;97385.66;4932709;29;20131;-81
2020/12/17 01:34:52;;;;;;;2.78;1.55;;;;;;;6.84;84.03;97383.84;4916030;29;20163;-81
2020/12/17 01:37:17;;;;;;;3.55;1.42;;;;;;;6.78;84.59;97389.88;4917129;29;20047;-81
2020/12/17 01:39:43;;;;;;;1.52;1.40;;;;;;;6.82;83.59;97390.22;4947179;29;20047;-81
2020/12/17 01:42:10;;;;;;;2.92;2.10;;;;;;;6.83;84.20;97390.00;4930814;29;20086;-81
2020/12/17 01:44:42;;;;;;;4.35;1.60;;;;;;;6.80;83.67;97390.44;4931645;29;20032;-80
2020/12/17 01:47:09;;;;;;;2.78;1.60;;;;;;;7.03;83.02;97391.63;4918283;29;20031;-81
2020/12/17 01:49:34;;;;;;;2.60;1.70;;;;;;;7.17;82.79;97403.41;4902838;29;20524;-82
2020/12/17 01:52:00;;;;;;;3.78;1.60;;;;;;;7.16;82.76;97401.03;4950992;28;20059;-81
2020/12/17 01:54:26;;;;;;;3.08;1.30;;;;;;;7.06;82.98;97406.69;4945869;28;20035;-82
2020/12/17 01:57:01;;;;;;;1.92;1.40;;;;;;;6.84;83.92;97404.53;4915878;29;20019;-79
2020/12/17 01:59:28;;;;;;;2.63;1.70;;;;;;;6.90;83.32;97402.88;4943684;29;20645;-80
2020/12/17 02:01:55;;;;;;;2.85;1.63;;;;;;;6.96;83.80;97409.00;4943851;29;20047;-79
2020/12/17 02:04:24;;;;;;;2.58;1.48;;;;;;;6.91;83.57;97404.47;4970911;23;20162;-77
2020/12/17 02:06:53;;;;;;;2.65;1.67;;;;;;;7.00;83.15;97399.81;4950572;28;20416;-76
2020/12/17 02:09:19;;;;;;;2.55;1.50;;;;;;;7.06;82.99;97402.34;4951711;28;20034;-77
2020/12/17 02:11:52;;;;;;;4.95;1.75;;;;;;;6.91;83.40;97396.72;4933642;28;20405;-77
2020/12/17 02:14:18;;;;;;;2.08;1.38;;;;;;;6.92;83.93;97400.88;4967270;28;20037;-76
2020/12/17 02:16:44;;;;;;;2.15;1.38;;;;;;;6.88;83.98;97399.72;4954698;28;20026;-77
2020/12/17 02:19:11;;;;;;;3.70;1.70;;;;;;;6.95;83.49;97400.44;4986588;28;20031;-77
2020/12/17 02:21:37;;;;;;;3.35;1.83;;;;;;;7.00;83.79;97407.56;4968238;28;20035;-77
2020/12/17 02:24:03;;;;;;;5.80;1.70;;;;;;;6.99;83.67;97396.44;4950422;28;20054;-77
2020/12/17 02:26:30;;;;;;;2.45;1.70;;;;;;;6.98;83.07;97405.19;4952548;28;20037;-77
2020/12/17 02:28:56;;;;;;;2.33;1.38;;;;;;;7.02;83.28;97401.16;4966920;28;20045;-77
2020/12/17 02:31:24;;;;;;;2.03;1.60;;;;;;;6.88;83.40;97395.34;4966351;28;20477;-77
2020/12/17 02:33:51;;;;;;;3.38;1.42;;;;;;;6.97;83.61;97406.19;4962496;28;20043;-76
2020/12/17 02:36:19;;;;;;;2.25;1.52;;;;;;;7.01;82.95;97403.97;4955244;28;20260;-77
2020/12/17 02:38:46;;;;;;;3.97;1.90;;;;;;;7.03;83.10;97409.75;4988985;28;20105;-77
2020/12/17 02:41:12;;;;;;;3.05;2.15;;;;;;;6.99;83.20;97395.63;4970452;28;20125;-77
2020/12/17 02:43:39;;;;;;;2.13;1.60;;;;;;;7.08;82.55;97399.53;4950262;28;20045;-77
2020/12/17 02:46:05;;;;;;;2.38;1.67;;;;;;;7.05;83.03;97398.16;4947306;28;20027;-77
2020/12/17 02:48:31;;;;;;;2.08;1.50;;;;;;;7.06;82.92;97389.38;4966812;28;20034;-76
2020/12/17 02:50:57;;;;;;;2.42;1.48;;;;;;;7.07;82.87;97392.75;4955095;28;20049;-77
2020/12/17 02:53:23;;;;;;;3.30;1.40;;;;;;;7.12;82.82;97395.50;4939464;28;20034;-77
2020/12/17 02:55:49;;;;;;;2.85;2.03;;;;;;;7.00;83.33;97397.22;4955868;28;20046;-78
2020/12/17 02:58:15;;;;;;;3.17;1.65;;;;;;;6.91;83.10;97399.31;4989220;28;20038;-77
2020/12/17 03:00:41;;;;;;;3.75;1.90;;;;;;;6.88;83.50;97400.50;4972050;28;20049;-77
2020/12/17 03:03:08;;;;;;;5.97;1.70;;;;;;;6.81;83.26;97396.41;4990619;28;20042;-77
2020/12/17 03:05:34;;;;;;;2.47;1.60;;;;;;;6.86;84.15;97402.53;4973410;28;20053;-77
2020/12/17 03:07:59;;;;;;;4.10;1.52;;;;;;;6.85;83.59;97395.75;4956364;28;20117;-77
2020/12/17 03:10:27;;;;;;;2.72;1.65;;;;;;;6.86;83.74;97383.63;4971788;28;20042;-77
2020/12/17 03:12:53;;;;;;;2.42;1.67;;;;;;;6.86;83.88;97389.59;4971756;28;20034;-77
2020/12/17 03:15:19;;;;;;;2.40;1.70;;;;;;;6.86;83.33;97389.59;4971093;28;20022;-77
2020/12/17 03:17:45;;;;;;;2.92;1.75;;;;;;;6.85;83.94;97382.81;4939743;28;20034;-77
2020/12/17 03:20:11;;;;;;;3.00;1.80;;;;;;;6.94;83.96;97384.13;4988784;28;20041;-76
2020/12/17 03:22:38;;;;;;;2.33;1.40;;;;;;;6.88;83.54;97389.38;4988959;28;20064;-77
2020/12/17 03:25:07;;;;;;;2.00;1.50;;;;;;;6.88;83.67;97387.56;4971394;28;20054;-77
2020/12/17 03:27:33;;;;;;;2.83;1.70;;;;;;;6.91;82.71;97394.13;4968499;28;20031;-77
2020/12/17 03:30:00;;;;;;;3.10;2.08;;;;;;;6.79;83.89;97391.47;4939468;28;20425;-76
2020/12/17 03:32:26;;;;;;;3.03;2.20;;;;;;;6.78;83.39;97384.69;4955561;28;20173;-76
2020/12/17 03:34:52;;;;;;;1.85;1.40;;;;;;;6.84;83.86;97391.59;4988653;28;20030;-77
2020/12/17 03:37:26;;;;;;;1.90;1.30;;;;;;;6.81;83.51;97396.41;4971664;28;20075;-77
2020/12/17 03:39:53;;;;;;;2.30;1.63;;;;;;;6.81;83.59;97394.63;4989505;28;20166;-77
2020/12/17 03:42:19;;;;;;;1.90;1.50;;;;;;;6.77;84.02;97390.06;4988952;28;20053;-77
2020/12/17 03:44:45;;;;;;;1.98;1.38;;;;;;;6.68;83.19;97389.56;4971377;28;20077;-76
2020/12/17 03:47:11;;;;;;;2.47;1.83;;;;;;;6.80;83.92;97392.25;4975267;28;20039;-77
2020/12/17 03:49:37;;;;;;;2.20;1.95;;;;;;;6.86;83.85;97396.56;4975132;28;20069;-77
2020/12/17 03:52:03;;;;;;;2.75;1.45;;;;;;;6.79;82.88;97396.63;4975020;28;20582;-77
2020/12/17 03:54:29;;;;;;;2.60;1.90;;;;;;;6.74;84.00;97399.06;4974784;28;20046;-78
2020/12/17 03:56:55;;;;;;;2.50;1.75;;;;;;;6.72;83.77;97390.72;4974705;28;20092;-77
2020/12/17 03:59:21;;;;;;;1.90;1.50;;;;;;;6.76;83.99;97397.06;4958744;28;20303;-77
2020/12/17 04:01:46;;;;;;;1.88;1.60;;;;;;;6.74;83.84;97396.47;4958710;28;20038;-77
2020/12/17 04:04:15;;;;;;;2.85;1.58;;;;;;;6.82;83.61;97392.81;4965781;28;20559;-77
2020/12/17 04:06:40;;;;;;;2.80;1.42;;;;;;;6.73;83.46;97394.88;4972788;28;20047;-77
2020/12/17 04:09:06;;;;;;;2.75;1.90;;;;;;;6.75;83.19;97391.09;4954615;28;20045;-77
2020/12/17 04:11:35;;;;;;;3.30;1.60;;;;;;;6.78;83.08;97400.22;4955234;28;20054;-77
2020/12/17 04:14:03;;;;;;;2.63;2.00;;;;;;;6.73;83.88;97397.47;4972221;28;20035;-76
2020/12/17 04:16:30;;;;;;;2.80;1.75;;;;;;;6.83;83.89;97399.59;4955378;28;20413;-77
2020/12/17 04:18:55;;;;;;;2.20;1.55;;;;;;;6.94;83.04;97404.06;4939276;28;20031;-77
2020/12/17 04:21:21;;;;;;;2.58;1.85;;;;;;;6.84;83.42;97407.13;4972076;28;20125;-77
2020/12/17 04:23:47;;;;;;;2.08;1.60;;;;;;;6.80;83.83;97405.19;4971852;28;20039;-77
2020/12/17 04:26:13;;;;;;;3.05;1.83;;;;;;;6.89;83.47;97407.28;4954893;28;20030;-77
2020/12/17 04:28:39;;;;;;;2.22;1.67;;;;;;;6.79;83.51;97401.81;4939277;28;20101;-76
2020/12/17 04:31:06;;;;;;;3.05;1.70;;;;;;;6.85;83.24;97405.31;4955189;28;20385;-77
2020/12/17 04:33:31;;;;;;;2.47;1.80;;;;;;;6.86;83.94;97412.88;4938574;28;20037;-77
2020/12/17 04:36:00;;;;;;;2.42;1.75;;;;;;;6.70;83.75;97403.06;4955076;28;20500;-77
2020/12/17 04:38:26;;;;;;;2.25;1.42;;;;;;;6.60;84.22;97411.34;4939851;28;20043;-77
2020/12/17 04:40:52;;;;;;;2.40;1.73;;;;;;;6.59;84.25;97407.16;4954768;28;20050;-78
2020/12/17 04:43:18;;;;;;;2.65;1.90;;;;;;;6.61;84.34;97412.91;4954517;28;20508;-77
2020/12/17 04:45:44;;;;;;;2.30;1.98;;;;;;;6.54;84.64;97404.41;4955059;28;20102;-76
2020/12/17 04:48:11;;;;;;;5.40;2.25;;;;;;;6.51;85.67;97416.00;4938755;28;20070;-77
2020/12/17 04:50:38;;;;;;;2.58;1.80;;;;;;;6.57;84.39;97417.72;4954430;28;20031;-78
2020/12/17 04:53:04;;;;;;;2.28;1.70;;;;;;;6.52;84.42;97414.97;4954594;28;20102;-78
2020/12/17 04:55:31;;;;;;;3.03;1.90;;;;;;;6.55;85.03;97427.50;4935233;29;20040;-77
2020/12/17 04:57:58;;;;;;;3.00;1.73;;;;;;;6.53;84.31;97421.75;4951517;28;20035;-77
2020/12/17 05:00:24;;;;;;;3.60;2.05;;;;;;;6.51;84.92;97425.53;4935737;29;20082;-77
2020/12/17 05:02:54;;;;;;;2.63;2.10;;;;;;;6.48;85.14;97426.75;4951030;29;20114;-77
2020/12/17 05:05:20;;;;;;;2.65;2.03;;;;;;;6.54;84.84;97435.47;4919492;28;20122;-77
2020/12/17 05:07:46;;;;;;;4.03;1.65;;;;;;;6.49;84.76;97433.50;4971496;28;20043;-77
2020/12/17 05:10:12;;;;;;;2.63;1.98;;;;;;;6.50;84.74;97435.09;4990674;28;20077;-77
2020/12/17 05:12:37;;;;;;;3.35;1.60;;;;;;;6.44;84.69;97437.72;4990521;28;20026;-76
2020/12/17 05:15:04;;;;;;;3.80;1.65;;;;;;;6.46;85.18;97436.53;4973521;28;20492;-77
2020/12/17 05:17:35;;;;;;;4.30;2.10;;;;;;;6.50;84.90;97437.69;4980995;28;20086;-77
2020/12/17 05:20:00;;;;;;;3.17;1.90;;;;;;;6.48;85.39;97439.69;4989826;28;20034;-77
2020/12/17 05:22:30;;;;;;;3.90;2.47;;;;;;;6.41;85.33;97446.72;4979866;28;20045;-77
2020/12/17 05:24:57;;;;;;;2.00;1.73;;;;;;;6.45;86.01;97450.44;4973075;28;20299;-77
2020/12/17 05:27:23;;;;;;;2.47;1.88;;;;;;;6.40;85.44;97455.47;4972963;28;20030;-77
2020/12/17 05:29:54;;;;;;;3.60;2.40;;;;;;;6.40;85.64;97462.44;4990528;28;20256;-77
2020/12/17 05:32:21;;;;;;;3.85;2.10;;;;;;;6.30;85.65;97466.25;4973036;28;20294;-77
2020/12/17 05:34:46;;;;;;;4.13;2.28;;;;;;;6.36;85.56;97472.41;4973069;28;20053;-78
2020/12/17 05:37:13;;;;;;;2.10;1.75;;;;;;;6.33;85.70;97483.16;4972654;28;20050;-77
2020/12/17 05:39:42;;;;;;;4.45;2.42;;;;;;;6.36;86.05;97487.94;4957007;28;20040;-77
2020/12/17 05:42:11;;;;;;;2.70;1.80;;;;;;;6.33;85.76;97490.94;4956639;28;20050;-77
2020/12/17 05:44:37;;;;;;;2.80;2.35;;;;;;;6.37;85.29;97486.91;4989017;28;20109;-77
2020/12/17 05:47:03;;;;;;;3.05;2.00;;;;;;;6.23;86.07;97478.44;4956488;28;20477;-77
2020/12/17 05:49:31;;;;;;;2.53;2.20;;;;;;;6.19;85.99;97490.22;4973110;28;20366;-77
2020/12/17 05:52:17;;;;;;;4.78;2.13;;;;;;;6.17;86.30;97497.41;4972841;28;20026;-77
2020/12/17 05:55:02;;;;;;;3.50;2.10;;;;;;;6.10;86.38;97497.44;4988385;28;20441;-76
2020/12/17 05:57:29;;;;;;;4.55;2.05;;;;;;;6.16;86.65;97500.97;4990035;28;20038;-77
2020/12/17 06:00:04;;;;;;;3.40;2.42;;;;;;;6.16;87.23;97508.72;4955472;28;20501;-77
2020/12/17 06:02:34;;;;;;;3.20;2.35;;;;;;;6.07;86.93;97508.19;4988776;28;20034;-76
2020/12/17 06:05:12;;;;;;;4.80;2.25;;;;;;;6.09;86.73;97507.97;4954486;28;20516;-77
2020/12/17 06:07:41;;;;;;;4.00;2.33;;;;;;;6.08;86.51;97509.75;4971565;28;20054;-77
2020/12/17 06:10:08;;;;;;;4.65;2.00;;;;;;;5.97;86.94;97507.84;4989208;28;20034;-77
2020/12/17 06:12:35;;;;;;;2.60;2.38;;;;;;;6.04;87.09;97516.34;4988652;28;20065;-77
2020/12/17 06:15:08;;;;;;;2.63;2.10;;;;;;;5.98;87.29;97510.22;4970953;28;20038;-78
2020/12/17 06:17:38;;;;;;;3.67;2.08;;;;;;;5.94;87.33;97508.19;4961896;28;20726;-77
2020/12/17 06:20:05;;;;;;;2.75;2.00;;;;;;;5.93;86.80;97529.88;4987692;28;20026;-77
2020/12/17 06:22:32;;;;;;;3.60;2.50;;;;;;;5.94;87.22;97521.13;4977218;28;20038;-77
2020/12/17 06:25:01;;;;;;;3.28;2.50;;;;;;;5.92;87.19;97528.28;4971302;28;20061;-77
2020/12/17 06:27:30;;;;;;;6.13;2.05;;;;;;;5.84;87.35;97531.09;4971012;28;20038;-77
2020/12/17 06:30:05;;;;;;;4.70;2.50;;;;;;;5.81;88.07;97533.09;4955576;28;20053;-77
2020/12/17 06:32:33;;;;;;;3.97;2.40;;;;;;;5.87;87.57;97539.25;4968897;28;20619;-78
2020/12/17 06:35:20;;;;;;;3.40;2.42;;;;;;;5.92;88.09;97538.63;4971388;28;20038;-77
2020/12/17 06:37:46;;;;;;;3.00;2.38;;;;;;;5.89;87.63;97536.44;4971563;28;20129;-77
2020/12/17 06:40:12;;;;;;;4.43;2.70;;;;;;;5.91;87.49;97542.22;4972207;28;20465;-77
2020/12/17 06:42:41;;;;;;;5.18;2.58;;;;;;;5.96;87.71;97542.41;4972197;28;20061;-77
2020/12/17 06:45:33;;;;;;;4.18;2.95;;;;;;;5.89;87.49;97546.78;4972031;28;20061;-77
2020/12/17 06:48:35;;;;;;;3.53;2.35;;;;;;;5.99;87.46;97557.53;4972404;28;20517;-76
2020/12/17 06:51:38;;;;;;;4.72;2.97;;;;;;;5.97;87.72;97559.53;4956456;28;20034;-77
2020/12/17 06:54:29;;;;;;;4.90;2.35;;;;;;;5.99;88.40;97565.28;4971914;28;20027;-77
2020/12/17 06:57:05;;;;;;;4.18;2.58;;;;;;;6.05;87.66;97574.81;4989045;28;20030;-77
2020/12/17 06:59:31;;;;;;;4.38;2.50;;;;;;;5.94;88.05;97562.47;4989386;28;20053;-77
2020/12/17 07:01:58;;;;;;;6.43;3.22;;;;;;;6.04;87.88;97565.44;4972713;28;20085;-77
2020/12/17 07:04:36;;;;;;;4.72;2.58;;;;;;;6.05;88.18;97574.81;4955183;28;20397;-77
2020/12/17 07:07:09;;;;;;;3.58;2.22;;;;;;;6.18;87.28;97587.66;4990196;28;20472;-77
2020/12/17 07:09:37;;;;;;;4.13;3.08;;;;;;;6.16;87.49;97588.88;4989951;28;20651;-78
2020/12/17 07:12:03;;;;;;;4.20;2.40;;;;;;;6.16;87.80;97584.50;4956328;28;20053;-77
2020/12/17 07:14:29;;;;;;;3.38;2.30;;;;;;;6.14;87.54;97596.03;4972112;28;20035;-77
2020/12/17 07:16:59;;;;;;;4.65;2.88;;;;;;;6.16;88.20;97592.25;4971893;28;20022;-77
2020/12/17 07:19:26;;;;;;;3.30;2.90;;;;;;;6.14;88.09;97596.84;4940284;28;20030;-77
2020/12/17 07:21:55;;;;;;;5.30;3.08;;;;;;;6.23;87.93;97599.19;4975814;28;20034;-77
2020/12/17 07:24:50;;;;;;;4.05;3.15;;;;;;;6.32;88.03;97616.88;4975957;28;20038;-77
2020/12/17 07:27:24;;;;;;;4.07;2.47;;;;;;;6.21;88.49;97616.72;4976482;28;20109;-77
2020/12/17 07:30:07;;;;;;;4.63;3.03;;;;;;;6.26;87.91;97614.31;4976836;28;20218;-77
2020/12/17 07:32:46;;;;;;;2.72;2.20;;;;;;;6.40;88.13;97610.66;4976130;28;20037;-77
2020/12/17 07:35:12;;;;;;;3.10;2.17;;;;;;;6.43;87.50;97615.41;4975870;28;20031;-77
2020/12/17 07:37:51;;;;;;;2.80;2.40;;;;;;;6.45;87.07;97618.56;4976294;28;20117;-77
2020/12/17 07:40:19;;;;;;;3.58;2.60;;;;;;;6.38;87.72;97612.66;4992891;28;20073;-77
2020/12/17 07:43:06;;;;;;;3.05;2.35;;;;;;;6.40;88.07;97618.41;4975277;28;20495;-77
2020/12/17 07:45:39;;;;;;;3.20;2.00;;;;;;;6.43;87.74;97605.06;4992068;28;20053;-77
2020/12/17 07:48:33;;;;;;;3.95;2.65;;;;;;;6.42;87.49;97615.63;4975894;28;20076;-77
2020/12/17 07:51:22;;;;;;;3.47;2.42;;;;;;;6.46;87.87;97609.84;4993093;28;20045;-77
2020/12/17 07:53:49;;;;;;;4.20;2.53;;;;;;;6.51;87.58;97622.94;4982136;28;20050;-77
2020/12/17 07:56:16;;;;;;;3.47;2.47;;;;;;;6.53;87.52;97620.94;4970883;28;20531;-77
2020/12/17 07:58:43;;;;;;;3.30;2.28;;;;;;;6.46;87.99;97620.19;4992232;28;20052;-77
2020/12/17 08:01:11;;;;;;;4.05;2.55;;;;;;;6.57;87.58;97616.91;4974861;28;20065;-77
2020/12/17 08:03:41;;;;;;;4.10;2.60;;;;;;;6.68;87.69;97628.44;4974297;28;20493;-77
2020/12/17 08:06:08;;;;;;;3.70;3.13;;;;;;;6.71;87.72;97628.00;4975636;28;20646;-77
2020/12/17 08:08:35;;;;;;;8.27;2.80;;;;;;;6.70;87.57;97628.19;4994445;28;20461;-77
2020/12/17 08:11:02;;;;;;;4.90;2.40;;;;;;;6.81;87.57;97621.59;4973201;28;20033;-76
2020/12/17 08:13:28;;;;;;;5.47;2.75;;;;;;;6.80;87.44;97623.34;4951999;28;20170;-77
2020/12/17 08:16:04;;;;;;;4.65;2.90;;;;;;;6.93;86.77;97631.03;4973512;28;20041;-77
2020/12/17 08:18:31;;;;;;;4.50;2.40;;;;;;;6.93;87.49;97640.63;4973474;28;20465;-77
2020/12/17 08:21:09;;;;;;;5.28;2.42;;;;;;;6.88;87.17;97640.44;4957678;28;20085;-77
2020/12/17 08:23:39;;;;;;;4.63;2.90;;;;;;;7.01;86.97;97657.66;4976431;28;20110;-77
2020/12/17 08:26:11;;;;;;;7.28;3.17;;;;;;;6.97;87.04;97651.34;4976463;28;20037;-77
2020/12/17 08:28:39;;;;;;;6.10;2.70;;;;;;;7.09;86.93;97655.66;4974259;28;20814;-77
2020/12/17 08:31:09;;;;;;;5.70;2.88;;;;;;;7.13;87.27;97658.63;4971539;28;20092;-77
2020/12/17 08:33:40;;;;;;;4.88;2.95;;;;;;;7.10;86.58;97661.63;4990116;28;20072;-78
2020/12/17 08:36:11;;;;;;;5.30;2.67;;;;;;;7.02;87.48;97662.66;4974521;28;20046;-77
2020/12/17 08:38:38;;;;;;;5.32;3.55;;;;;;;7.06;87.21;97670.78;4967982;28;20069;-77
2020/12/17 08:41:07;;;;;;;4.13;2.75;;;;;;;6.99;87.84;97676.03;4976164;28;20477;-77
2020/12/17 08:43:41;;;;;;;4.53;2.80;;;;;;;6.95;87.81;97685.19;4975237;28;20037;-77
2020/12/17 08:46:11;;;;;;;4.40;2.25;;;;;;;6.98;87.91;97673.66;4976036;28;20040;-77
2020/12/17 08:48:37;;;;;;;10.90;3.30;;;;;;;6.97;88.19;97683.19;4976420;28;20532;-77
2020/12/17 08:51:03;;;;;;;7.32;3.08;;;;;;;7.01;88.54;97694.75;4976324;28;20022;-77
2020/12/17 08:53:35;;;;;;;5.78;2.95;;;;;;;7.00;87.78;97689.75;4975728;28;20030;-77
2020/12/17 08:56:21;;;;;;;5.63;3.35;;;;;;;7.08;88.10;97715.41;4973354;28;20030;-77
2020/12/17 08:58:49;;;;;;;5.07;3.53;;;;;;;7.02;88.14;97714.44;4983739;28;20596;-77
2020/12/17 09:01:20;;;;;;;4.40;3.80;;;;;;;6.98;89.10;97723.63;4989281;28;20425;-76
2020/12/17 09:03:50;;;;;;;5.07;3.20;;;;;;;6.98;89.88;97720.25;4992083;28;20074;-77
2020/12/17 09:06:22;;;;;;;6.25;3.50;;;;;;;6.94;90.68;97727.63;4955482;28;20541;-77
2020/12/17 09:08:47;;;;;;;6.20;3.63;;;;;;;6.84;91.29;97728.06;4973299;28;20034;-77
2020/12/17 09:11:29;;;;;;;7.90;3.75;;;;;;;6.83;90.64;97739.41;4970402;28;20146;-77
2020/12/17 09:14:02;;;;;;;7.75;4.13;;;;;;;6.84;91.06;97738.44;4988560;28;20036;-77
2020/12/17 09:16:32;;;;;;;5.45;3.75;;;;;;;6.84;91.68;97743.59;4975813;28;20431;-77
2020/12/17 09:19:07;;;;;;;7.05;4.53;;;;;;;6.84;91.57;97748.78;4973470;28;20417;-77
2020/12/17 09:21:51;;;;;;;7.05;3.95;;;;;;;6.89;91.33;97750.75;4954102;28;20317;-77
2020/12/17 09:24:25;;;;;;;8.63;4.10;;;;;;;6.85;91.38;97765.09;4989341;28;20029;-77
2020/12/17 09:26:51;;;;;;;11.68;4.60;;;;;;;6.77;91.68;97758.38;4973440;28;20042;-77
2020/12/17 09:29:16;;;;;;;7.82;4.50;;;;;;;6.88;91.04;97764.69;4956194;28;20034;-77
2020/12/17 09:31:42;;;;;;;7.75;4.60;;;;;;;6.85;91.69;97768.47;4956386;28;20027;-76
2020/12/17 09:34:13;;;;;;;7.35;4.38;;;;;;;6.71;91.33;97767.72;4989606;28;20038;-77
2020/12/17 09:36:42;;;;;;;7.22;4.63;;;;;;;6.76;92.24;97769.72;4969635;28;20030;-77
2020/12/17 09:39:14;;;;;;;5.80;4.28;;;;;;;6.82;91.77;97784.44;4973203;28;20027;-77
2020/12/17 09:41:52;;;;;;;7.50;5.07;;;;;;;6.78;91.86;97783.22;4964884;28;20118;-77
2020/12/17 09:44:28;;;;;;;7.65;4.32;;;;;;;6.91;91.14;97783.19;4989620;28;20381;-77
2020/12/17 09:46:54;;;;;;;7.68;4.40;;;;;;;6.90;91.25;97780.81;4973540;28;20031;-77
2020/12/17 09:49:25;;;;;;;4.85;4.25;;;;;;;6.87;92.09;97789.78;4973626;28;20026;-77
2020/12/17 09:52:05;;;;;;;5.32;4.22;;;;;;;6.86;92.12;97784.81;4972399;28;20045;-77
2020/12/17 09:54:31;;;;;;;5.55;4.38;;;;;;;6.96;92.41;97797.31;4973404;28;20420;-78
2020/12/17 09:57:14;;;;;;;6.20;4.28;;;;;;;6.91;91.75;97790.97;4964126;28;20039;-77
2020/12/17 09:59:41;;;;;;;6.32;4.43;;;;;;;6.88;91.83;97793.94;4972318;28;20039;-77
2020/12/17 10:02:13;;;;;;;4.88;4.07;;;;;;;6.96;91.32;97802.47;4969955;28;20637;-77
2020/12/17 10:04:39;;;;;;;5.15;4.18;;;;;;;6.96;91.99;97811.06;4970429;28;20042;-77
2020/12/17 10:07:06;;;;;;;7.07;4.47;;;;;;;6.94;92.28;97803.50;4972532;28;20118;-77
2020/12/17 10:09:32;;;;;;;5.57;4.28;;;;;;;7.01;91.91;97803.47;4972546;28;20109;-77
2020/12/17 10:11:58;;;;;;;7.30;3.65;;;;;;;7.00;91.54;97809.63;4971813;28;20137;-77
2020/12/17 10:14:26;;;;;;;5.53;4.10;;;;;;;7.10;91.57;97816.97;4988867;28;20054;-77
2020/12/17 10:17:01;;;;;;;4.82;4.10;;;;;;;7.10;91.47;97807.41;4980390;28;20424;-77
2020/12/17 10:19:28;;;;;;;5.28;4.13;;;;;;;7.14;91.70;97815.56;4989305;28;20061;-77
2020/12/17 10:21:58;;;;;;;5.07;4.05;;;;;;;7.13;92.31;97821.75;4971475;28;20034;-77
2020/12/17 10:24:25;;;;;;;5.72;3.83;;;;;;;7.22;91.51;97804.97;4972065;28;20036;-77
2020/12/17 10:26:52;;;;;;;4.40;3.80;;;;;;;7.26;90.79;97813.13;4956205;28;20487;-77
2020/12/17 10:29:17;;;;;;;5.68;3.67;;;;;;;7.32;91.52;97815.69;4952081;28;20038;-77
2020/12/17 10:31:47;;;;;;;6.65;3.35;;;;;;;7.39;90.95;97812.28;4951561;28;20034;-77
2020/12/17 10:34:17;;;;;;;4.97;3.80;;;;;;;7.41;90.20;97812.84;4955871;28;20133;-77
2020/12/17 10:36:44;;;;;;;6.40;3.25;;;;;;;7.43;90.48;97821.19;4972018;28;20088;-77
2020/12/17 10:39:12;;;;;;;6.80;5.38;;;;;;;7.44;90.33;97822.81;4972285;28;20049;-77
2020/12/17 10:41:37;;;;;;;6.30;4.30;;;;;;;7.52;89.99;97819.16;4958574;28;20087;-77
2020/12/17 10:44:04;;;;;;;5.25;3.05;;;;;;;7.52;89.47;97827.72;4968464;28;20525;-77
2020/12/17 10:46:31;;;;;;;4.90;3.40;;;;;;;7.49;89.08;97828.16;4961105;28;20034;-77
2020/12/17 10:48:58;;;;;;;4.18;2.65;;;;;;;7.49;89.84;97822.97;4971075;28;20030;-77
2020/12/17 10:51:25;;;;;;;3.80;2.97;;;;;;;7.50;89.09;97830.53;4954789;28;20027;-77
2020/12/17 10:53:51;;;;;;;3.95;2.78;;;;;;;7.43;89.60;97816.81;4972654;28;20381;-77
2020/12/17 10:56:17;;;;;;;4.45;3.08;;;;;;;7.49;90.13;97835.94;4974847;28;20100;-77
2020/12/17 10:58:43;;;;;;;3.65;2.80;;;;;;;7.49;89.68;97833.34;4960520;28;20038;-77
2020/12/17 11:01:09;;;;;;;5.88;3.28;;;;;;;7.54;89.65;97838.69;4975037;28;20073;-77
2020/12/17 11:03:35;;;;;;;2.95;2.33;;;;;;;7.49;88.93;97835.94;4975237;28;20062;-77
2020/12/17 11:06:01;;;;;;;2.75;2.10;;;;;;;7.59;89.55;97840.63;4972773;28;20038;-77
2020/12/17 11:08:27;;;;;;;3.40;2.58;;;;;;;7.53;88.71;97837.09;4972719;28;20035;-77
2020/12/17 11:10:53;;;;;;;3.92;2.20;;;;;;;7.59;88.97;97836.28;4961289;28;20034;-77
2020/12/17 11:13:18;;;;;;;3.13;2.10;;;;;;;7.69;87.85;97834.00;4974474;28;20138;-78
2020/12/17 11:15:48;;;;;;;2.38;1.98;;;;;;;7.68;87.92;97835.00;4975034;28;20049;-78
2020/12/17 11:18:14;;;;;;;3.60;2.00;;;;;;;7.71;87.29;97831.22;4964143;28;20039;-77
2020/12/17 11:20:40;;;;;;;2.20;2.00;;;;;;;7.62;87.88;97837.63;4974818;28;20485;-77
2020/12/17 11:23:07;;;;;;;2.40;2.20;;;;;;;7.56;87.86;97834.09;4974673;28;20049;-77
2020/12/17 11:25:36;;;;;;;3.10;1.88;;;;;;;7.49;88.73;97831.53;4993403;28;20026;-77
2020/12/17 11:28:13;;;;;;;3.25;1.75;;;;;;;7.58;88.90;97829.50;4959860;28;20046;-77
2020/12/17 11:30:38;;;;;;;2.22;1.50;;;;;;;7.66;87.90;97831.84;4971037;28;20053;-77
2020/12/17 11:33:04;;;;;;;3.55;1.80;;;;;;;7.66;88.25;97834.44;4992703;28;20042;-77
2020/12/17 11:35:32;;;;;;;2.53;2.00;;;;;;;7.64;88.31;97828.66;4974840;28;20461;-77
2020/12/17 11:37:58;;;;;;;3.20;1.65;;;;;;;7.75;88.32;97829.78;4972903;28;20480;-78
2020/12/17 11:40:24;;;;;;;2.55;1.70;;;;;;;7.77;87.60;97832.97;4969987;28;20448;-78
2020/12/17 11:42:51;;;;;;;3.10;1.88;;;;;;;7.79;87.87;97830.16;4957828;28;20029;-77
2020/12/17 11:45:17;;;;;;;3.38;1.90;;;;;;;7.66;88.23;97829.25;4950000;28;20509;-77
2020/12/17 11:47:44;;;;;;;2.38;1.83;;;;;;;7.65;87.95;97830.25;4971779;28;20385;-77
2020/12/17 11:50:10;;;;;;;3.05;1.60;;;;;;;7.73;87.36;97836.16;4986549;28;20026;-77